sensor_id;sensor_type;location;lat;lon;timestamp;pressure;altitude;pressure_sealevel;temperature
15680;BMP180;15488;48.114;11.532;2023-08-08T00:00:07;95601.00;;;19.90
15680;BMP180;15488;48.114;11.532;2023-08-08T00:02:36;95598.00;;;19.90
15680;BMP180;15488;48.114;11.532;2023-08-08T00:05:03;95598.00;;;19.80
15680;BMP180;15488;48.114;11.532;2023-08-08T00:07:31;95601.00;;;19.80
15680;BMP180;15488;48.114;11.532;2023-08-08T00:10:00;95600.00;;;19.70
15680;BMP180;15488;48.114;11.532;2023-08-08T00:12:28;95597.00;;;19.70
15680;BMP180;15488;48.114;11.532;2023-08-08T00:14:55;95596.00;;;19.60
15680;BMP180;15488;48.114;11.532;2023-08-08T00:17:23;95593.00;;;19.70
15680;BMP180;15488;48.114;11.532;2023-08-08T00:19:50;95593.00;;;19.60
15680;BMP180;15488;48.114;11.532;2023-08-08T00:22:18;95589.00;;;19.70
15680;BMP180;15488;48.114;11.532;2023-08-08T00:24:45;95589.00;;;19.70
15680;BMP180;15488;48.114;11.532;2023-08-08T00:27:14;95594.00;;;19.70
15680;BMP180;15488;48.114;11.532;2023-08-08T00:29:41;95585.00;;;19.70
15680;BMP180;15488;48.114;11.532;2023-08-08T00:32:09;95578.00;;;19.70
15680;BMP180;15488;48.114;11.532;2023-08-08T00:34:36;95582.00;;;19.70
15680;BMP180;15488;48.114;11.532;2023-08-08T00:37:04;95577.00;;;19.80
15680;BMP180;15488;48.114;11.532;2023-08-08T00:39:31;95579.00;;;19.80
15680;BMP180;15488;48.114;11.532;2023-08-08T00:41:59;95571.00;;;19.90
15680;BMP180;15488;48.114;11.532;2023-08-08T00:44:27;95576.00;;;19.90
15680;BMP180;15488;48.114;11.532;2023-08-08T00:46:55;95568.00;;;19.90
15680;BMP180;15488;48.114;11.532;2023-08-08T00:49:23;95574.00;;;19.90
15680;BMP180;15488;48.114;11.532;2023-08-08T00:51:50;95586.00;;;20.00
15680;BMP180;15488;48.114;11.532;2023-08-08T00:54:18;95581.00;;;20.00
15680;BMP180;15488;48.114;11.532;2023-08-08T00:56:47;95579.00;;;20.00
15680;BMP180;15488;48.114;11.532;2023-08-08T00:59:16;95578.00;;;20.00
15680;BMP180;15488;48.114;11.532;2023-08-08T01:01:47;95577.00;;;20.00
15680;BMP180;15488;48.114;11.532;2023-08-08T01:04:14;95573.00;;;20.00
15680;BMP180;15488;48.114;11.532;2023-08-08T01:06:47;95567.00;;;20.00
15680;BMP180;15488;48.114;11.532;2023-08-08T01:09:21;95566.00;;;20.10
15680;BMP180;15488;48.114;11.532;2023-08-08T01:11:52;95571.00;;;20.10
15680;BMP180;15488;48.114;11.532;2023-08-08T01:14:21;95567.00;;;20.10
15680;BMP180;15488;48.114;11.532;2023-08-08T01:16:52;95571.00;;;20.20
15680;BMP180;15488;48.114;11.532;2023-08-08T01:19:27;95568.00;;;20.20
15680;BMP180;15488;48.114;11.532;2023-08-08T01:21:59;95574.00;;;20.20
15680;BMP180;15488;48.114;11.532;2023-08-08T01:24:29;95569.00;;;20.20
15680;BMP180;15488;48.114;11.532;2023-08-08T01:26:59;95571.00;;;20.30
15680;BMP180;15488;48.114;11.532;2023-08-08T01:29:27;95561.00;;;20.30
15680;BMP180;15488;48.114;11.532;2023-08-08T01:31:54;95562.00;;;20.30
15680;BMP180;15488;48.114;11.532;2023-08-08T01:34:22;95550.00;;;20.30
15680;BMP180;15488;48.114;11.532;2023-08-08T01:36:54;95551.00;;;20.30
15680;BMP180;15488;48.114;11.532;2023-08-08T01:39:26;95552.00;;;20.30
15680;BMP180;15488;48.114;11.532;2023-08-08T01:41:56;95548.00;;;20.30
15680;BMP180;15488;48.114;11.532;2023-08-08T01:44:24;95554.00;;;20.30
15680;BMP180;15488;48.114;11.532;2023-08-08T01:46:54;95554.00;;;20.30
15680;BMP180;15488;48.114;11.532;2023-08-08T01:49:22;95542.00;;;20.30
15680;BMP180;15488;48.114;11.532;2023-08-08T01:51:49;95540.00;;;20.30
15680;BMP180;15488;48.114;11.532;2023-08-08T01:54:18;95543.00;;;20.30
15680;BMP180;15488;48.114;11.532;2023-08-08T01:56:46;95544.00;;;20.30
15680;BMP180;15488;48.114;11.532;2023-08-08T01:59:15;95544.00;;;20.30
15680;BMP180;15488;48.114;11.532;2023-08-08T02:01:42;95544.00;;;20.30
15680;BMP180;15488;48.114;11.532;2023-08-08T02:04:09;95540.00;;;20.30
15680;BMP180;15488;48.114;11.532;2023-08-08T02:06:37;95543.00;;;20.30
15680;BMP180;15488;48.114;11.532;2023-08-08T02:09:04;95478.00;;;20.30
15680;BMP180;15488;48.114;11.532;2023-08-08T02:11:32;95531.00;;;20.30
15680;BMP180;15488;48.114;11.532;2023-08-08T02:13:59;95534.00;;;20.30
15680;BMP180;15488;48.114;11.532;2023-08-08T02:16:28;95532.00;;;20.10
15680;BMP180;15488;48.114;11.532;2023-08-08T02:18:56;95534.00;;;20.10
15680;BMP180;15488;48.114;11.532;2023-08-08T02:21:23;95530.00;;;20.10
15680;BMP180;15488;48.114;11.532;2023-08-08T02:23:50;95521.00;;;20.00
15680;BMP180;15488;48.114;11.532;2023-08-08T02:26:18;95523.00;;;19.90
15680;BMP180;15488;48.114;11.532;2023-08-08T02:28:45;95522.00;;;19.90
15680;BMP180;15488;48.114;11.532;2023-08-08T02:31:13;95523.00;;;19.80
15680;BMP180;15488;48.114;11.532;2023-08-08T02:33:48;95523.00;;;19.80
15680;BMP180;15488;48.114;11.532;2023-08-08T02:36:16;95523.00;;;19.80
15680;BMP180;15488;48.114;11.532;2023-08-08T02:38:44;95522.00;;;19.70
15680;BMP180;15488;48.114;11.532;2023-08-08T02:41:11;95527.00;;;19.80
15680;BMP180;15488;48.114;11.532;2023-08-08T02:43:39;95526.00;;;19.80
15680;BMP180;15488;48.114;11.532;2023-08-08T02:46:06;95522.00;;;19.80
15680;BMP180;15488;48.114;11.532;2023-08-08T02:48:34;95525.00;;;19.80
15680;BMP180;15488;48.114;11.532;2023-08-08T02:51:03;95519.00;;;19.80
15680;BMP180;15488;48.114;11.532;2023-08-08T02:53:30;95518.00;;;19.80
15680;BMP180;15488;48.114;11.532;2023-08-08T02:55:58;95521.00;;;19.90
15680;BMP180;15488;48.114;11.532;2023-08-08T02:58:25;95514.00;;;19.90
15680;BMP180;15488;48.114;11.532;2023-08-08T03:00:53;95524.00;;;19.90
15680;BMP180;15488;48.114;11.532;2023-08-08T03:03:20;95532.00;;;19.90
15680;BMP180;15488;48.114;11.532;2023-08-08T03:05:48;95528.00;;;19.80
15680;BMP180;15488;48.114;11.532;2023-08-08T03:08:16;95528.00;;;19.80
15680;BMP180;15488;48.114;11.532;2023-08-08T03:10:44;95527.00;;;19.80
15680;BMP180;15488;48.114;11.532;2023-08-08T03:13:11;95524.00;;;19.90
15680;BMP180;15488;48.114;11.532;2023-08-08T03:15:39;95527.00;;;19.80
15680;BMP180;15488;48.114;11.532;2023-08-08T03:18:06;95519.00;;;19.90
15680;BMP180;15488;48.114;11.532;2023-08-08T03:20:34;95522.00;;;19.90
15680;BMP180;15488;48.114;11.532;2023-08-08T03:23:01;95519.00;;;19.90
15680;BMP180;15488;48.114;11.532;2023-08-08T03:25:30;95521.00;;;19.90
15680;BMP180;15488;48.114;11.532;2023-08-08T03:27:57;95518.00;;;19.90
15680;BMP180;15488;48.114;11.532;2023-08-08T03:30:25;95514.00;;;19.90
15680;BMP180;15488;48.114;11.532;2023-08-08T03:32:52;95508.00;;;19.80
15680;BMP180;15488;48.114;11.532;2023-08-08T03:35:20;95517.00;;;19.80
15680;BMP180;15488;48.114;11.532;2023-08-08T03:37:47;95525.00;;;19.80
15680;BMP180;15488;48.114;11.532;2023-08-08T03:40:14;95513.00;;;19.90
15680;BMP180;15488;48.114;11.532;2023-08-08T03:42:43;95517.00;;;19.90
15680;BMP180;15488;48.114;11.532;2023-08-08T03:45:11;95526.00;;;19.90
15680;BMP180;15488;48.114;11.532;2023-08-08T03:47:39;95523.00;;;19.90
15680;BMP180;15488;48.114;11.532;2023-08-08T03:50:08;95516.00;;;19.90
15680;BMP180;15488;48.114;11.532;2023-08-08T03:52:36;95517.00;;;20.00
15680;BMP180;15488;48.114;11.532;2023-08-08T03:55:05;95513.00;;;19.90
15680;BMP180;15488;48.114;11.532;2023-08-08T03:57:32;95515.00;;;19.90
15680;BMP180;15488;48.114;11.532;2023-08-08T04:00:01;95511.00;;;19.90
15680;BMP180;15488;48.114;11.532;2023-08-08T04:02:30;95519.00;;;20.00
15680;BMP180;15488;48.114;11.532;2023-08-08T04:04:57;95516.00;;;20.00
15680;BMP180;15488;48.114;11.532;2023-08-08T04:07:24;95520.00;;;20.00
15680;BMP180;15488;48.114;11.532;2023-08-08T04:09:52;95516.00;;;20.00
15680;BMP180;15488;48.114;11.532;2023-08-08T04:12:19;95520.00;;;20.10
15680;BMP180;15488;48.114;11.532;2023-08-08T04:14:47;95522.00;;;20.10
15680;BMP180;15488;48.114;11.532;2023-08-08T04:17:15;95527.00;;;20.10
15680;BMP180;15488;48.114;11.532;2023-08-08T04:19:43;95523.00;;;20.20
15680;BMP180;15488;48.114;11.532;2023-08-08T04:22:10;95530.00;;;20.20
15680;BMP180;15488;48.114;11.532;2023-08-08T04:24:38;95521.00;;;20.20
15680;BMP180;15488;48.114;11.532;2023-08-08T04:27:06;95536.00;;;20.20
15680;BMP180;15488;48.114;11.532;2023-08-08T04:29:33;95539.00;;;20.20
15680;BMP180;15488;48.114;11.532;2023-08-08T04:32:01;95538.00;;;20.20
15680;BMP180;15488;48.114;11.532;2023-08-08T04:34:29;95531.00;;;20.20
15680;BMP180;15488;48.114;11.532;2023-08-08T04:36:57;95543.00;;;20.20
15680;BMP180;15488;48.114;11.532;2023-08-08T04:39:24;95534.00;;;20.20
15680;BMP180;15488;48.114;11.532;2023-08-08T04:41:52;95476.00;;;20.20
15680;BMP180;15488;48.114;11.532;2023-08-08T04:44:19;95538.00;;;20.10
15680;BMP180;15488;48.114;11.532;2023-08-08T04:46:47;95533.00;;;20.10
15680;BMP180;15488;48.114;11.532;2023-08-08T04:49:14;95531.00;;;20.10
15680;BMP180;15488;48.114;11.532;2023-08-08T04:51:43;95531.00;;;20.00
15680;BMP180;15488;48.114;11.532;2023-08-08T04:54:10;95529.00;;;20.10
15680;BMP180;15488;48.114;11.532;2023-08-08T04:56:38;95535.00;;;20.10
15680;BMP180;15488;48.114;11.532;2023-08-08T04:59:05;95533.00;;;20.10
15680;BMP180;15488;48.114;11.532;2023-08-08T05:01:33;95538.00;;;20.10
15680;BMP180;15488;48.114;11.532;2023-08-08T05:04:00;95529.00;;;20.10
15680;BMP180;15488;48.114;11.532;2023-08-08T05:06:28;95536.00;;;20.20
15680;BMP180;15488;48.114;11.532;2023-08-08T05:08:57;95538.00;;;20.20
15680;BMP180;15488;48.114;11.532;2023-08-08T05:11:24;95540.00;;;20.20
15680;BMP180;15488;48.114;11.532;2023-08-08T05:13:52;95538.00;;;20.20
15680;BMP180;15488;48.114;11.532;2023-08-08T05:16:19;95543.00;;;20.20
15680;BMP180;15488;48.114;11.532;2023-08-08T05:18:47;95542.00;;;20.10
15680;BMP180;15488;48.114;11.532;2023-08-08T05:21:14;95540.00;;;20.10
15680;BMP180;15488;48.114;11.532;2023-08-08T05:23:41;95535.00;;;20.20
15680;BMP180;15488;48.114;11.532;2023-08-08T05:26:10;95537.00;;;20.20
15680;BMP180;15488;48.114;11.532;2023-08-08T05:28:38;95538.00;;;20.20
15680;BMP180;15488;48.114;11.532;2023-08-08T05:31:05;95533.00;;;20.20
15680;BMP180;15488;48.114;11.532;2023-08-08T05:33:33;95532.00;;;20.30
15680;BMP180;15488;48.114;11.532;2023-08-08T05:36:00;95537.00;;;20.30
15680;BMP180;15488;48.114;11.532;2023-08-08T05:38:28;95532.00;;;20.40
15680;BMP180;15488;48.114;11.532;2023-08-08T05:40:55;95533.00;;;20.40
15680;BMP180;15488;48.114;11.532;2023-08-08T05:43:24;95530.00;;;20.50
15680;BMP180;15488;48.114;11.532;2023-08-08T05:45:53;95535.00;;;20.50
15680;BMP180;15488;48.114;11.532;2023-08-08T05:48:21;95530.00;;;20.60
15680;BMP180;15488;48.114;11.532;2023-08-08T05:50:48;95541.00;;;20.70
15680;BMP180;15488;48.114;11.532;2023-08-08T05:53:16;95539.00;;;20.60
15680;BMP180;15488;48.114;11.532;2023-08-08T05:55:44;95537.00;;;20.70
15680;BMP180;15488;48.114;11.532;2023-08-08T05:58:11;95536.00;;;20.70
15680;BMP180;15488;48.114;11.532;2023-08-08T06:00:41;95534.00;;;20.70
15680;BMP180;15488;48.114;11.532;2023-08-08T06:03:08;95536.00;;;20.70
15680;BMP180;15488;48.114;11.532;2023-08-08T06:05:36;95540.00;;;20.70
15680;BMP180;15488;48.114;11.532;2023-08-08T06:08:04;95539.00;;;20.70
15680;BMP180;15488;48.114;11.532;2023-08-08T06:10:33;95541.00;;;20.70
15680;BMP180;15488;48.114;11.532;2023-08-08T06:13:01;95541.00;;;20.80
15680;BMP180;15488;48.114;11.532;2023-08-08T06:15:28;95543.00;;;20.80
15680;BMP180;15488;48.114;11.532;2023-08-08T06:17:57;95541.00;;;20.80
15680;BMP180;15488;48.114;11.532;2023-08-08T06:20:25;95544.00;;;20.80
15680;BMP180;15488;48.114;11.532;2023-08-08T06:22:52;95544.00;;;20.90
15680;BMP180;15488;48.114;11.532;2023-08-08T06:25:20;95538.00;;;20.90
15680;BMP180;15488;48.114;11.532;2023-08-08T06:27:47;95541.00;;;21.00
15680;BMP180;15488;48.114;11.532;2023-08-08T06:30:15;95541.00;;;21.00
15680;BMP180;15488;48.114;11.532;2023-08-08T06:32:43;95541.00;;;21.00
15680;BMP180;15488;48.114;11.532;2023-08-08T06:35:12;95532.00;;;21.10
15680;BMP180;15488;48.114;11.532;2023-08-08T06:37:42;95528.00;;;21.10
15680;BMP180;15488;48.114;11.532;2023-08-08T06:40:11;95539.00;;;21.20
15680;BMP180;15488;48.114;11.532;2023-08-08T06:42:39;95537.00;;;21.20
15680;BMP180;15488;48.114;11.532;2023-08-08T06:45:07;95536.00;;;21.20
15680;BMP180;15488;48.114;11.532;2023-08-08T06:47:36;95533.00;;;21.30
15680;BMP180;15488;48.114;11.532;2023-08-08T06:50:04;95539.00;;;21.30
15680;BMP180;15488;48.114;11.532;2023-08-08T06:52:33;95536.00;;;21.30
15680;BMP180;15488;48.114;11.532;2023-08-08T06:55:01;95530.00;;;21.30
15680;BMP180;15488;48.114;11.532;2023-08-08T06:57:33;95528.00;;;21.40
15680;BMP180;15488;48.114;11.532;2023-08-08T07:00:00;95529.00;;;21.40
15680;BMP180;15488;48.114;11.532;2023-08-08T07:02:31;95535.00;;;21.50
15680;BMP180;15488;48.114;11.532;2023-08-08T07:04:58;95536.00;;;21.50
15680;BMP180;15488;48.114;11.532;2023-08-08T07:07:26;95527.00;;;21.50
15680;BMP180;15488;48.114;11.532;2023-08-08T07:09:57;95531.00;;;21.50
15680;BMP180;15488;48.114;11.532;2023-08-08T07:12:24;95528.00;;;21.50
15680;BMP180;15488;48.114;11.532;2023-08-08T07:14:52;95530.00;;;21.60
15680;BMP180;15488;48.114;11.532;2023-08-08T07:17:19;95526.00;;;21.70
15680;BMP180;15488;48.114;11.532;2023-08-08T07:19:47;95523.00;;;21.70
15680;BMP180;15488;48.114;11.532;2023-08-08T07:22:14;95522.00;;;21.70
15680;BMP180;15488;48.114;11.532;2023-08-08T07:24:42;95524.00;;;21.70
15680;BMP180;15488;48.114;11.532;2023-08-08T07:27:11;95532.00;;;21.70
15680;BMP180;15488;48.114;11.532;2023-08-08T07:29:38;95527.00;;;21.70
15680;BMP180;15488;48.114;11.532;2023-08-08T07:32:07;95499.00;;;21.80
15680;BMP180;15488;48.114;11.532;2023-08-08T07:34:34;95526.00;;;21.80
15680;BMP180;15488;48.114;11.532;2023-08-08T07:37:03;95520.00;;;21.80
15680;BMP180;15488;48.114;11.532;2023-08-08T07:39:30;95529.00;;;21.90
15680;BMP180;15488;48.114;11.532;2023-08-08T07:41:58;95524.00;;;22.00
15680;BMP180;15488;48.114;11.532;2023-08-08T07:44:27;95464.00;;;21.90
15680;BMP180;15488;48.114;11.532;2023-08-08T07:46:54;95512.00;;;22.00
15680;BMP180;15488;48.114;11.532;2023-08-08T07:49:21;95514.00;;;22.00
15680;BMP180;15488;48.114;11.532;2023-08-08T07:51:49;95508.00;;;22.00
15680;BMP180;15488;48.114;11.532;2023-08-08T07:54:16;95500.00;;;22.00
15680;BMP180;15488;48.114;11.532;2023-08-08T07:56:44;95508.00;;;22.10
15680;BMP180;15488;48.114;11.532;2023-08-08T07:59:11;95510.00;;;22.10
15680;BMP180;15488;48.114;11.532;2023-08-08T08:01:40;95501.00;;;22.20
15680;BMP180;15488;48.114;11.532;2023-08-08T08:04:08;95497.00;;;22.40
15680;BMP180;15488;48.114;11.532;2023-08-08T08:06:35;95489.00;;;22.30
15680;BMP180;15488;48.114;11.532;2023-08-08T08:09:03;95491.00;;;22.30
15680;BMP180;15488;48.114;11.532;2023-08-08T08:11:30;95486.00;;;22.30
15680;BMP180;15488;48.114;11.532;2023-08-08T08:13:58;95488.00;;;22.40
15680;BMP180;15488;48.114;11.532;2023-08-08T08:16:25;95495.00;;;22.50
15680;BMP180;15488;48.114;11.532;2023-08-08T08:18:54;95487.00;;;22.50
15680;BMP180;15488;48.114;11.532;2023-08-08T08:21:21;95488.00;;;22.50
15680;BMP180;15488;48.114;11.532;2023-08-08T08:23:49;95480.00;;;22.50
15680;BMP180;15488;48.114;11.532;2023-08-08T08:26:17;95484.00;;;22.60
15680;BMP180;15488;48.114;11.532;2023-08-08T08:28:44;95485.00;;;22.60
15680;BMP180;15488;48.114;11.532;2023-08-08T08:31:12;95487.00;;;22.70
15680;BMP180;15488;48.114;11.532;2023-08-08T08:33:39;95484.00;;;22.70
15680;BMP180;15488;48.114;11.532;2023-08-08T08:36:08;95482.00;;;22.80
15680;BMP180;15488;48.114;11.532;2023-08-08T08:38:36;95489.00;;;22.80
15680;BMP180;15488;48.114;11.532;2023-08-08T08:41:03;95490.00;;;22.90
15680;BMP180;15488;48.114;11.532;2023-08-08T08:43:31;95441.00;;;22.90
15680;BMP180;15488;48.114;11.532;2023-08-08T08:46:00;95471.00;;;23.00
15680;BMP180;15488;48.114;11.532;2023-08-08T08:48:29;95469.00;;;23.00
15680;BMP180;15488;48.114;11.532;2023-08-08T08:50:57;95463.00;;;23.00
15680;BMP180;15488;48.114;11.532;2023-08-08T08:53:26;95470.00;;;23.10
15680;BMP180;15488;48.114;11.532;2023-08-08T08:55:54;95465.00;;;23.10
15680;BMP180;15488;48.114;11.532;2023-08-08T08:58:25;95468.00;;;23.20
15680;BMP180;15488;48.114;11.532;2023-08-08T09:00:55;95459.00;;;23.20
15680;BMP180;15488;48.114;11.532;2023-08-08T09:03:24;95473.00;;;23.30
15680;BMP180;15488;48.114;11.532;2023-08-08T09:05:52;95462.00;;;23.40
15680;BMP180;15488;48.114;11.532;2023-08-08T09:08:20;95463.00;;;23.40
15680;BMP180;15488;48.114;11.532;2023-08-08T09:10:49;95401.00;;;23.40
15680;BMP180;15488;48.114;11.532;2023-08-08T09:13:17;95458.00;;;23.50
15680;BMP180;15488;48.114;11.532;2023-08-08T09:15:47;95450.00;;;23.60
15680;BMP180;15488;48.114;11.532;2023-08-08T09:18:15;95460.00;;;23.60
15680;BMP180;15488;48.114;11.532;2023-08-08T09:20:47;95453.00;;;23.70
15680;BMP180;15488;48.114;11.532;2023-08-08T09:23:15;95450.00;;;23.60
15680;BMP180;15488;48.114;11.532;2023-08-08T09:25:43;95443.00;;;23.70
15680;BMP180;15488;48.114;11.532;2023-08-08T09:28:12;95450.00;;;23.70
15680;BMP180;15488;48.114;11.532;2023-08-08T09:30:41;95445.00;;;23.80
15680;BMP180;15488;48.114;11.532;2023-08-08T09:33:09;95445.00;;;23.90
15680;BMP180;15488;48.114;11.532;2023-08-08T09:35:39;95460.00;;;24.00
15680;BMP180;15488;48.114;11.532;2023-08-08T09:38:06;95451.00;;;24.00
15680;BMP180;15488;48.114;11.532;2023-08-08T09:40:34;95438.00;;;24.10
15680;BMP180;15488;48.114;11.532;2023-08-08T09:43:02;95429.00;;;24.20
15680;BMP180;15488;48.114;11.532;2023-08-08T09:45:37;95439.00;;;24.30
15680;BMP180;15488;48.114;11.532;2023-08-08T09:48:06;95437.00;;;24.40
15680;BMP180;15488;48.114;11.532;2023-08-08T09:50:33;95430.00;;;24.40
15680;BMP180;15488;48.114;11.532;2023-08-08T09:53:02;95434.00;;;24.50
15680;BMP180;15488;48.114;11.532;2023-08-08T09:55:30;95433.00;;;24.50
15680;BMP180;15488;48.114;11.532;2023-08-08T09:57:59;95431.00;;;24.60
15680;BMP180;15488;48.114;11.532;2023-08-08T10:00:28;95434.00;;;24.70
15680;BMP180;15488;48.114;11.532;2023-08-08T10:02:58;95429.00;;;24.80
15680;BMP180;15488;48.114;11.532;2023-08-08T10:05:27;95434.00;;;24.90
15680;BMP180;15488;48.114;11.532;2023-08-08T10:07:54;95424.00;;;25.00
15680;BMP180;15488;48.114;11.532;2023-08-08T10:10:23;95433.00;;;25.10
15680;BMP180;15488;48.114;11.532;2023-08-08T10:12:51;95434.00;;;25.10
15680;BMP180;15488;48.114;11.532;2023-08-08T10:15:19;95438.00;;;25.00
15680;BMP180;15488;48.114;11.532;2023-08-08T10:17:54;95434.00;;;25.10
15680;BMP180;15488;48.114;11.532;2023-08-08T10:20:24;95427.00;;;25.10
15680;BMP180;15488;48.114;11.532;2023-08-08T10:22:53;95428.00;;;25.10
15680;BMP180;15488;48.114;11.532;2023-08-08T10:25:24;95428.00;;;25.10
15680;BMP180;15488;48.114;11.532;2023-08-08T10:28:03;95431.00;;;25.20
15680;BMP180;15488;48.114;11.532;2023-08-08T10:30:42;95426.00;;;25.20
15680;BMP180;15488;48.114;11.532;2023-08-08T10:33:17;95435.00;;;25.20
15680;BMP180;15488;48.114;11.532;2023-08-08T10:35:57;95433.00;;;25.20
15680;BMP180;15488;48.114;11.532;2023-08-08T10:38:25;95427.00;;;25.30
15680;BMP180;15488;48.114;11.532;2023-08-08T10:40:57;95434.00;;;25.30
15680;BMP180;15488;48.114;11.532;2023-08-08T10:43:29;95426.00;;;25.40
15680;BMP180;15488;48.114;11.532;2023-08-08T10:46:00;95431.00;;;25.40
15680;BMP180;15488;48.114;11.532;2023-08-08T10:48:28;95421.00;;;25.40
15680;BMP180;15488;48.114;11.532;2023-08-08T10:50:58;95422.00;;;25.50
15680;BMP180;15488;48.114;11.532;2023-08-08T10:53:26;95424.00;;;25.60
15680;BMP180;15488;48.114;11.532;2023-08-08T10:56:02;95416.00;;;25.60
15680;BMP180;15488;48.114;11.532;2023-08-08T10:58:37;95418.00;;;25.50
15680;BMP180;15488;48.114;11.532;2023-08-08T11:01:04;95406.00;;;25.60
15680;BMP180;15488;48.114;11.532;2023-08-08T11:03:35;95417.00;;;25.70
15680;BMP180;15488;48.114;11.532;2023-08-08T11:06:04;95419.00;;;25.80
15680;BMP180;15488;48.114;11.532;2023-08-08T11:08:33;95423.00;;;25.70
15680;BMP180;15488;48.114;11.532;2023-08-08T11:11:02;95422.00;;;25.80
15680;BMP180;15488;48.114;11.532;2023-08-08T11:13:30;95414.00;;;25.90
15680;BMP180;15488;48.114;11.532;2023-08-08T11:15:57;95403.00;;;25.90
15680;BMP180;15488;48.114;11.532;2023-08-08T11:18:28;95412.00;;;26.00
15680;BMP180;15488;48.114;11.532;2023-08-08T11:20:56;95402.00;;;26.10
15680;BMP180;15488;48.114;11.532;2023-08-08T11:23:24;95395.00;;;26.20
15680;BMP180;15488;48.114;11.532;2023-08-08T11:25:52;95407.00;;;26.20
15680;BMP180;15488;48.114;11.532;2023-08-08T11:28:19;95404.00;;;26.30
15680;BMP180;15488;48.114;11.532;2023-08-08T11:30:47;95399.00;;;26.30
15680;BMP180;15488;48.114;11.532;2023-08-08T11:33:15;95396.00;;;26.30
15680;BMP180;15488;48.114;11.532;2023-08-08T11:35:46;95394.00;;;26.40
15680;BMP180;15488;48.114;11.532;2023-08-08T11:38:15;95397.00;;;26.50
15680;BMP180;15488;48.114;11.532;2023-08-08T11:40:45;95403.00;;;26.60
15680;BMP180;15488;48.114;11.532;2023-08-08T11:43:12;95380.00;;;26.60
15680;BMP180;15488;48.114;11.532;2023-08-08T11:45:42;95401.00;;;26.70
15680;BMP180;15488;48.114;11.532;2023-08-08T11:48:10;95394.00;;;26.70
15680;BMP180;15488;48.114;11.532;2023-08-08T11:50:37;95385.00;;;26.70
15680;BMP180;15488;48.114;11.532;2023-08-08T11:53:08;95395.00;;;26.80
15680;BMP180;15488;48.114;11.532;2023-08-08T11:55:36;95381.00;;;26.80
15680;BMP180;15488;48.114;11.532;2023-08-08T11:58:05;95372.00;;;26.90
15680;BMP180;15488;48.114;11.532;2023-08-08T12:00:33;95366.00;;;26.90
15680;BMP180;15488;48.114;11.532;2023-08-08T12:03:02;95369.00;;;27.00
15680;BMP180;15488;48.114;11.532;2023-08-08T12:05:36;95370.00;;;27.10
15680;BMP180;15488;48.114;11.532;2023-08-08T12:08:05;95384.00;;;27.30
15680;BMP180;15488;48.114;11.532;2023-08-08T12:10:33;95379.00;;;27.30
15680;BMP180;15488;48.114;11.532;2023-08-08T12:13:00;95375.00;;;27.50
15680;BMP180;15488;48.114;11.532;2023-08-08T12:15:33;95376.00;;;27.50
15680;BMP180;15488;48.114;11.532;2023-08-08T12:18:02;95373.00;;;27.60
15680;BMP180;15488;48.114;11.532;2023-08-08T12:20:30;95368.00;;;27.50
15680;BMP180;15488;48.114;11.532;2023-08-08T12:22:58;95376.00;;;27.60
15680;BMP180;15488;48.114;11.532;2023-08-08T12:25:26;95372.00;;;27.70
15680;BMP180;15488;48.114;11.532;2023-08-08T12:27:53;95384.00;;;27.60
15680;BMP180;15488;48.114;11.532;2023-08-08T12:30:20;95390.00;;;27.70
15680;BMP180;15488;48.114;11.532;2023-08-08T12:32:49;95371.00;;;27.80
15680;BMP180;15488;48.114;11.532;2023-08-08T12:35:17;95369.00;;;27.80
15680;BMP180;15488;48.114;11.532;2023-08-08T12:37:44;95370.00;;;27.90
15680;BMP180;15488;48.114;11.532;2023-08-08T12:40:12;95367.00;;;28.00
15680;BMP180;15488;48.114;11.532;2023-08-08T12:42:40;95365.00;;;28.10
15680;BMP180;15488;48.114;11.532;2023-08-08T12:45:08;95381.00;;;28.20
15680;BMP180;15488;48.114;11.532;2023-08-08T12:47:36;95378.00;;;28.20
15680;BMP180;15488;48.114;11.532;2023-08-08T12:50:05;95371.00;;;28.20
15680;BMP180;15488;48.114;11.532;2023-08-08T12:52:34;95368.00;;;28.30
15680;BMP180;15488;48.114;11.532;2023-08-08T12:55:02;95364.00;;;28.40
15680;BMP180;15488;48.114;11.532;2023-08-08T12:57:30;95372.00;;;28.50
15680;BMP180;15488;48.114;11.532;2023-08-08T12:59:58;95364.00;;;28.60
15680;BMP180;15488;48.114;11.532;2023-08-08T13:02:25;95368.00;;;28.70
15680;BMP180;15488;48.114;11.532;2023-08-08T13:04:55;95361.00;;;28.80
15680;BMP180;15488;48.114;11.532;2023-08-08T13:07:24;95360.00;;;29.00
15680;BMP180;15488;48.114;11.532;2023-08-08T13:09:52;95362.00;;;29.10
15680;BMP180;15488;48.114;11.532;2023-08-08T13:12:19;95363.00;;;29.30
15680;BMP180;15488;48.114;11.532;2023-08-08T13:14:47;95362.00;;;29.40
15680;BMP180;15488;48.114;11.532;2023-08-08T13:17:14;95370.00;;;29.40
15680;BMP180;15488;48.114;11.532;2023-08-08T13:19:42;95360.00;;;29.40
15680;BMP180;15488;48.114;11.532;2023-08-08T13:22:09;95373.00;;;29.50
15680;BMP180;15488;48.114;11.532;2023-08-08T13:24:38;95378.00;;;29.40
15680;BMP180;15488;48.114;11.532;2023-08-08T13:27:05;95370.00;;;29.40
15680;BMP180;15488;48.114;11.532;2023-08-08T13:29:33;95352.00;;;29.50
15680;BMP180;15488;48.114;11.532;2023-08-08T13:32:00;95358.00;;;29.50
15680;BMP180;15488;48.114;11.532;2023-08-08T13:34:28;95360.00;;;29.60
15680;BMP180;15488;48.114;11.532;2023-08-08T13:36:55;95355.00;;;29.60
15680;BMP180;15488;48.114;11.532;2023-08-08T13:39:23;95346.00;;;29.70
15680;BMP180;15488;48.114;11.532;2023-08-08T13:41:51;95346.00;;;29.90
15680;BMP180;15488;48.114;11.532;2023-08-08T13:44:19;95349.00;;;29.90
15680;BMP180;15488;48.114;11.532;2023-08-08T13:46:46;95348.00;;;30.00
15680;BMP180;15488;48.114;11.532;2023-08-08T13:49:14;95344.00;;;30.10
15680;BMP180;15488;48.114;11.532;2023-08-08T13:51:41;95346.00;;;30.30
15680;BMP180;15488;48.114;11.532;2023-08-08T13:54:10;95346.00;;;30.40
15680;BMP180;15488;48.114;11.532;2023-08-08T13:56:37;95355.00;;;30.50
15680;BMP180;15488;48.114;11.532;2023-08-08T13:59:06;95344.00;;;30.60
15680;BMP180;15488;48.114;11.532;2023-08-08T14:01:34;95349.00;;;30.60